Time;durP1;ratioP1;P1;durP2;ratioP2;P2;SDS_P1;SDS_P2;PMS_P1;PMS_P2;Temp;Humidity;BMP_temperature;BMP_pressure;BME280_temperature;BME280_humidity;BME280_pressure;Samples;Min_cycle;Max_cycle;Signal;HPM_P1;HPM_P2
2023/01/11 00:01:36;;;;;;;18.23;3.80;;;5.10;99.90;;;3.53;100.00;100869.25;5002790;28;20036;-80
2023/01/11 00:04:02;;;;;;;19.73;4.43;;;5.10;99.90;;;3.53;100.00;100861.44;5004430;28;20026;-79
2023/01/11 00:06:33;;;;;;;17.65;3.42;;;5.10;99.90;;;3.57;100.00;100850.97;5005064;28;20592;-80
2023/01/11 00:08:58;;;;;;;16.48;3.47;;;5.20;99.90;;;3.57;100.00;100847.50;4999941;28;20030;-81
2023/01/11 00:11:24;;;;;;;20.13;3.70;;;5.20;99.90;;;3.60;100.00;100842.25;4984042;28;20028;-79
2023/01/11 00:13:50;;;;;;;23.77;3.42;;;5.20;99.90;;;3.61;100.00;100833.56;4986072;28;20050;-80
2023/01/11 00:16:16;;;;;;;19.92;3.35;;;5.20;99.90;;;3.61;100.00;100829.19;4965402;28;20081;-80
2023/01/11 00:18:42;;;;;;;28.95;3.75;;;5.20;99.90;;;3.61;100.00;100826.59;4999808;28;20478;-79
2023/01/11 00:21:13;;;;;;;15.73;3.15;;;5.20;99.90;;;3.62;100.00;100820.50;4985147;28;20042;-80
2023/01/11 00:23:39;;;;;;;16.65;2.97;;;5.30;99.90;;;3.62;100.00;100819.63;5000714;28;20034;-80
2023/01/11 00:26:11;;;;;;;15.68;3.78;;;5.20;99.90;;;3.62;100.00;100810.06;4970071;28;20045;-80
2023/01/11 00:28:40;;;;;;;20.48;3.63;;;5.30;99.90;;;3.61;100.00;100803.16;4984591;28;20142;-79
2023/01/11 00:31:06;;;;;;;20.67;3.15;;;5.30;99.90;;;3.61;100.00;100795.34;4985224;28;20065;-79
2023/01/11 00:33:31;;;;;;;20.30;3.58;;;5.30;99.90;;;3.64;100.00;100799.63;5000958;28;20037;-80
2023/01/11 00:35:57;;;;;;;18.15;2.92;;;5.30;99.90;;;3.63;100.00;100801.41;4966410;28;20048;-79
2023/01/11 00:49:27;;;;;;;21.88;3.17;;;5.30;99.90;;;3.70;100.00;100776.09;5000117;28;20069;-80
2023/01/11 00:51:53;;;;;;;19.75;3.22;;;5.30;99.90;;;3.70;100.00;100763.09;4984231;28;20042;-80
2023/01/11 00:54:19;;;;;;;18.23;2.92;;;5.40;99.90;;;3.69;100.00;100764.84;4984360;28;20558;-80
2023/01/11 00:56:45;;;;;;;18.52;3.63;;;5.40;99.90;;;3.72;100.00;100760.47;5001468;28;20025;-80
2023/01/11 00:59:11;;;;;;;15.85;2.85;;;5.40;99.90;;;3.73;100.00;100765.63;4982686;28;20049;-79
2023/01/11 01:01:36;;;;;;;17.38;2.75;;;5.30;99.90;;;3.70;100.00;100750.91;4984367;28;20034;-80
2023/01/11 01:04:03;;;;;;;19.52;3.30;;;5.40;99.90;;;3.67;100.00;100752.69;4965387;28;20019;-79
2023/01/11 01:06:29;;;;;;;19.73;2.80;;;5.30;99.90;;;3.66;100.00;100753.59;4967710;28;20416;-80
2023/01/11 01:08:58;;;;;;;16.38;2.90;;;5.30;99.90;;;3.67;100.00;100752.69;4980008;28;20057;-80
2023/01/11 01:11:24;;;;;;;13.00;3.03;;;5.30;99.90;;;3.67;100.00;100748.38;4980691;28;20145;-78
2023/01/11 01:16:35;;;;;;;17.95;3.00;;;5.30;99.90;;;3.68;100.00;100733.59;5003095;28;20044;-79
2023/01/11 01:19:09;;;;;;;19.65;2.88;;;5.40;99.90;;;3.70;100.00;100734.44;4980658;28;20437;-79
2023/01/11 01:21:36;;;;;;;17.42;3.22;;;5.30;99.90;;;3.68;100.00;100721.44;4982324;28;20475;-79
2023/01/11 01:24:02;;;;;;;20.35;2.92;;;5.30;99.90;;;3.67;100.00;100718.84;4968846;28;20053;-79
2023/01/11 01:26:31;;;;;;;19.58;3.35;;;5.30;99.90;;;3.69;100.00;100711.88;4967571;28;20435;-80
2023/01/11 01:28:57;;;;;;;16.42;2.83;;;5.30;99.90;;;3.68;100.00;100712.78;4985440;28;20037;-79
2023/01/11 01:31:22;;;;;;;24.27;3.20;;;5.30;99.90;;;3.69;100.00;100697.13;4981581;28;20104;-80
2023/01/11 01:33:48;;;;;;;16.50;2.88;;;5.30;99.90;;;3.72;100.00;100690.16;5000138;28;20121;-79
2023/01/11 01:36:14;;;;;;;19.38;2.80;;;5.30;99.90;;;3.68;100.00;100689.34;4998035;28;20918;-80
2023/01/11 01:38:40;;;;;;;22.42;2.95;;;5.40;99.90;;;3.73;100.00;100692.69;4982782;28;20049;-80
2023/01/11 01:41:06;;;;;;;18.30;4.25;;;5.40;99.90;;;3.72;100.00;100685.78;4980982;28;20041;-80
2023/01/11 01:43:53;;;;;;;15.05;2.70;;;5.40;99.90;;;3.76;100.00;100686.56;4966034;28;20461;-80
2023/01/11 01:46:21;;;;;;;18.60;3.05;;;5.40;99.90;;;3.74;100.00;100688.34;4984548;28;20030;-79
2023/01/11 01:49:05;;;;;;;27.48;3.75;;;5.40;99.90;;;3.77;100.00;100689.16;4999939;28;20802;-80
2023/01/11 01:51:53;;;;;;;17.02;3.10;;;5.40;99.90;;;3.77;100.00;100683.09;4981330;28;20042;-80
2023/01/11 01:54:34;;;;;;;13.45;2.67;;;5.40;99.90;;;3.82;100.00;100674.31;4982376;28;20514;-78
2023/01/11 01:57:11;;;;;;;17.02;3.30;;;5.40;99.90;;;3.83;100.00;100670.81;4997677;28;20048;-80
2023/01/11 01:59:37;;;;;;;14.25;3.30;;;5.50;99.90;;;3.82;100.00;100655.19;4998904;28;20049;-80
2023/01/11 02:02:03;;;;;;;15.07;2.28;;;5.40;99.90;;;3.83;100.00;100657.78;4964720;28;20026;-79
2023/01/11 02:04:42;;;;;;;15.18;2.75;;;5.50;99.90;;;3.85;100.00;100634.31;5000058;28;20022;-80
2023/01/11 02:07:18;;;;;;;13.85;3.00;;;5.40;99.90;;;3.83;100.00;100630.88;4964390;28;20026;-80
2023/01/11 02:10:05;;;;;;;19.15;3.17;;;5.40;99.90;;;3.84;100.00;100623.00;4964904;28;20141;-80
2023/01/11 02:12:48;;;;;;;15.77;2.72;;;5.50;99.90;;;3.84;100.00;100622.16;4981417;28;20038;-80
2023/01/11 02:15:20;;;;;;;14.77;3.13;;;5.50;99.90;;;3.82;100.00;100617.00;4982741;28;20038;-79
2023/01/11 02:17:45;;;;;;;20.73;3.20;;;5.50;99.90;;;3.85;100.00;100613.47;4980588;28;20684;-80
2023/01/11 02:20:40;;;;;;;19.00;2.95;;;5.50;99.90;;;3.83;100.00;100616.09;4998033;28;20080;-79
2023/01/11 02:23:46;;;;;;;20.88;3.95;;;5.40;99.90;;;3.81;100.00;100610.06;4984019;28;20048;-80
2023/01/11 02:26:14;;;;;;;17.75;3.70;;;5.40;99.90;;;3.81;100.00;100610.06;5000236;28;20054;-79
2023/01/11 02:28:59;;;;;;;16.02;2.88;;;5.50;99.90;;;3.81;100.00;100607.47;4980744;28;20026;-79
2023/01/11 02:31:40;;;;;;;21.63;3.10;;;5.40;99.90;;;3.81;100.00;100606.63;4984452;28;20036;-78
2023/01/11 02:34:40;;;;;;;24.48;3.60;;;5.50;99.90;;;3.80;100.00;100605.75;4966968;28;20032;-80
2023/01/11 02:37:18;;;;;;;16.88;3.17;;;5.40;99.90;;;3.79;100.00;100598.81;5001201;28;20072;-80
2023/01/11 02:39:50;;;;;;;23.30;4.05;;;5.40;99.90;;;3.81;100.00;100591.84;4998775;28;20490;-80
2023/01/11 02:46:01;;;;;;;14.80;2.70;;;5.40;99.90;;;3.84;100.00;100596.97;5000165;28;20119;-79
2023/01/11 02:48:35;;;;;;;21.80;3.65;;;5.50;99.90;;;3.79;100.00;100588.41;4998813;28;20022;-80
2023/01/11 02:51:13;;;;;;;16.67;3.17;;;5.40;99.90;;;3.84;100.00;100583.09;4983087;28;20030;-81
2023/01/11 02:53:55;;;;;;;15.40;2.85;;;5.50;99.90;;;3.77;100.00;100574.56;4996486;28;20750;-81
2023/01/11 02:56:30;;;;;;;19.55;3.20;;;5.40;99.90;;;3.77;100.00;100565.88;4997790;28;20045;-80
2023/01/11 02:58:57;;;;;;;19.08;3.35;;;5.40;99.90;;;3.77;100.00;100576.31;4981058;28;20133;-81
2023/01/11 03:01:24;;;;;;;19.48;3.33;;;5.40;99.90;;;3.79;100.00;100567.56;4983718;28;20026;-82
2023/01/11 03:03:53;;;;;;;17.35;2.67;;;5.40;99.90;;;3.79;100.00;100564.97;4997529;28;20478;-81
2023/01/11 03:06:33;;;;;;;25.27;3.38;;;5.40;99.90;;;3.78;100.00;100560.66;5000352;28;20034;-82
2023/01/11 03:09:20;;;;;;;20.17;3.67;;;5.40;99.90;;;3.79;100.00;100556.31;4968557;28;20400;-81
2023/01/11 03:15:20;;;;;;;22.05;3.13;;;5.40;99.90;;;3.76;100.00;100545.94;5003350;28;19916;-81
2023/01/11 03:18:03;;;;;;;;;;;5.40;99.90;;;3.73;100.00;100552.06;5005765;28;20090;-81
2023/01/11 03:20:46;;;;;;;24.95;3.38;;;5.40;99.90;;;3.71;100.00;100548.63;4967532;28;20009;-80
2023/01/11 03:23:21;;;;;;;20.20;2.88;;;5.40;99.90;;;3.74;100.00;100537.28;4999395;28;20042;-81
2023/01/11 03:26:19;;;;;;;20.67;3.83;;;5.40;99.90;;;3.77;100.00;100525.06;5005357;28;20034;-81
2023/01/11 03:29:15;;;;;;;19.33;3.22;;;5.40;99.90;;;3.80;100.00;100529.34;4999580;28;20060;-81
2023/01/11 03:31:43;;;;;;;19.73;2.75;;;5.40;99.90;;;3.85;100.00;100532.72;4970204;28;20406;-81
2023/01/11 03:34:31;;;;;;;16.63;3.47;;;5.50;99.90;;;3.88;100.00;100514.41;5002134;28;20483;-82
2023/01/11 03:37:09;;;;;;;13.48;3.08;;;5.40;99.90;;;3.87;100.00;100513.56;4985042;28;20030;-82
2023/01/11 03:40:19;;;;;;;16.75;2.90;;;5.50;99.90;;;3.86;100.00;100506.63;4969530;28;20050;-82
2023/01/11 03:45:42;;;;;;;15.30;3.00;;;5.50;99.90;;;3.89;100.00;100490.94;5001948;28;20057;-81
2023/01/11 03:48:15;;;;;;;23.92;4.15;;;5.50;99.90;;;3.93;100.00;100478.72;4984791;28;20117;-82
2023/01/11 03:50:43;;;;;;;15.80;2.58;;;5.50;99.90;;;3.94;100.00;100480.41;4988368;28;20025;-81
2023/01/11 03:53:16;;;;;;;23.75;2.78;;;5.60;99.90;;;3.98;100.00;100486.44;4967176;28;20494;-80
2023/01/11 03:55:45;;;;;;;30.20;3.53;;;5.60;99.90;;;3.99;100.00;100473.34;5001959;28;20036;-80
2023/01/11 03:58:11;;;;;;;13.50;2.47;;;5.60;99.90;;;4.01;100.00;100470.72;5001330;28;20459;-81
2023/01/11 04:00:46;;;;;;;15.35;2.75;;;5.60;99.90;;;4.04;100.00;100478.44;4985012;28;20087;-81
2023/01/11 04:03:13;;;;;;;23.85;3.25;;;5.60;99.90;;;4.06;100.00;100476.66;4984115;28;20030;-80
2023/01/11 04:05:46;;;;;;;17.85;3.30;;;5.60;99.90;;;4.06;100.00;100477.53;4987917;28;20040;-81
2023/01/11 04:08:12;;;;;;;15.10;2.75;;;5.60;99.90;;;4.02;100.00;100472.44;4999751;28;20101;-81
2023/01/11 04:10:38;;;;;;;10.00;2.60;;;5.70;99.90;;;4.06;100.00;100467.13;4984093;28;20110;-81
2023/01/11 04:13:04;;;;;;;17.70;3.60;;;5.70;99.90;;;4.12;100.00;100450.47;4986051;28;20026;-79
2023/01/11 04:15:30;;;;;;;19.88;3.03;;;5.70;99.90;;;4.13;100.00;100451.34;4984217;28;20487;-81
2023/01/11 04:18:04;;;;;;;13.68;2.45;;;5.70;99.90;;;4.16;100.00;100453.84;4964972;28;20038;-81
2023/01/11 04:20:36;;;;;;;17.50;3.25;;;5.70;99.90;;;4.17;100.00;100451.22;4964493;28;20062;-80
2023/01/11 04:23:07;;;;;;;25.60;3.33;;;5.70;99.90;;;4.20;100.00;100456.34;4998537;28;20428;-81
2023/01/11 04:25:33;;;;;;;17.13;3.10;;;5.80;99.90;;;4.22;100.00;100446.72;4999915;28;20494;-81
2023/01/11 04:27:59;;;;;;;20.17;3.45;;;5.70;99.90;;;4.17;100.00;100450.34;4969225;28;20022;-80
2023/01/11 04:30:25;;;;;;;21.10;2.78;;;5.70;99.90;;;4.18;100.00;100444.25;4982734;28;20022;-79
2023/01/11 04:32:52;;;;;;;17.63;2.50;;;5.70;99.90;;;4.22;100.00;100451.94;4998493;28;20026;-81
2023/01/11 04:35:20;;;;;;;15.55;2.50;;;5.80;99.90;;;4.25;100.00;100459.69;4986355;28;20029;-81
2023/01/11 04:37:46;;;;;;;20.35;3.50;;;5.80;99.90;;;4.26;100.00;100450.13;4981469;28;20558;-81
2023/01/11 04:40:12;;;;;;;18.65;3.40;;;5.80;99.90;;;4.26;100.00;100447.53;4986535;28;20108;-80
2023/01/11 04:42:38;;;;;;;18.98;3.03;;;5.90;99.90;;;4.32;100.00;100450.84;4985200;28;20188;-80
2023/01/11 04:45:05;;;;;;;13.55;2.40;;;5.90;99.90;;;4.34;100.00;100445.56;4983005;28;20530;-80
2023/01/11 04:47:31;;;;;;;18.23;3.08;;;5.90;99.90;;;4.34;100.00;100439.50;4985306;28;20033;-81
2023/01/11 04:50:06;;;;;;;15.75;2.53;;;5.90;99.90;;;4.38;100.00;100441.97;5002039;28;20029;-80
2023/01/11 04:52:31;;;;;;;29.33;3.25;;;5.90;99.90;;;4.36;100.00;100433.34;4983324;28;20034;-80
2023/01/11 04:54:57;;;;;;;18.27;3.15;;;5.90;99.90;;;4.33;100.00;100433.44;4987221;28;20037;-80
2023/01/11 04:57:24;;;;;;;13.90;2.70;;;5.90;99.90;;;4.35;100.00;100426.44;4984119;28;20398;-80
2023/01/11 04:59:52;;;;;;;15.27;3.17;;;5.90;99.90;;;4.36;100.00;100435.09;4967879;28;20030;-81
2023/01/11 05:02:18;;;;;;;18.77;2.40;;;5.90;99.90;;;4.41;100.00;100430.66;4999331;28;20415;-80
2023/01/11 05:04:44;;;;;;;16.50;2.80;;;5.90;99.90;;;4.42;100.00;100432.34;4981603;28;20124;-80
2023/01/11 05:07:12;;;;;;;16.48;2.58;;;6.00;99.90;;;4.46;100.00;100439.19;4978983;28;20101;-80
2023/01/11 05:09:39;;;;;;;17.20;2.35;;;6.00;99.90;;;4.50;100.00;100422.56;5000771;28;20096;-80
2023/01/11 05:12:09;;;;;;;14.00;3.28;;;6.00;99.90;;;4.50;100.00;100415.59;4985106;28;20037;-81
2023/01/11 05:14:35;;;;;;;18.42;2.92;;;6.00;99.90;;;4.47;100.00;100407.00;4968417;28;20457;-79
2023/01/11 05:17:01;;;;;;;15.75;3.05;;;6.00;99.90;;;4.48;100.00;100408.72;5000857;28;20036;-80
2023/01/11 05:19:27;;;;;;;13.75;2.58;;;6.00;99.90;;;4.48;100.00;100411.34;4982808;28;20124;-80
2023/01/11 05:21:52;;;;;;;12.88;2.25;;;6.00;99.90;;;4.49;100.00;100407.81;4964381;28;20114;-79
2023/01/11 05:24:18;;;;;;;14.55;2.60;;;6.10;99.90;;;4.49;100.00;100400.88;5001228;28;20026;-80
2023/01/11 05:26:52;;;;;;;16.23;2.50;;;6.10;99.90;;;4.54;100.00;100402.50;4974742;28;20061;-79
2023/01/11 05:29:19;;;;;;;14.93;2.63;;;6.10;99.90;;;4.54;100.00;100398.13;4969787;28;20486;-81
2023/01/11 05:31:45;;;;;;;17.30;2.55;;;6.10;99.90;;;4.57;100.00;100387.59;4982817;28;20121;-80
2023/01/11 05:34:12;;;;;;;14.10;2.63;;;6.10;99.90;;;4.59;100.00;100385.81;4981844;28;20213;-80
2023/01/11 05:36:41;;;;;;;12.88;2.67;;;6.10;99.90;;;4.61;100.00;100383.16;4983508;28;20041;-81
2023/01/11 05:39:09;;;;;;;14.40;2.33;;;6.20;99.90;;;4.67;100.00;100391.69;4967662;28;20116;-80
2023/01/11 05:41:35;;;;;;;14.52;2.70;;;6.20;99.90;;;4.70;100.00;100391.59;4985193;28;20071;-79
2023/01/11 05:46:45;;;;;;;17.98;2.50;;;6.20;99.90;;;4.75;100.00;100377.56;4986257;28;20105;-78
2023/01/11 05:49:13;;;;;;;18.13;2.78;;;6.30;99.90;;;4.78;100.00;100382.72;4987266;28;20030;-78
2023/01/11 05:51:40;;;;;;;13.15;2.35;;;6.30;99.90;;;4.73;100.00;100377.63;4980589;28;20611;-78
2023/01/11 05:54:11;;;;;;;13.52;2.67;;;6.30;99.90;;;4.83;100.00;100386.03;4983956;28;20529;-78
2023/01/11 05:56:43;;;;;;;12.23;2.30;;;6.30;99.90;;;4.82;100.00;100386.94;4980830;28;20034;-78
2023/01/11 05:59:10;;;;;;;12.68;2.42;;;6.30;99.90;;;4.84;100.00;100388.59;4982235;28;20032;-77
2023/01/11 06:01:35;;;;;;;20.42;3.25;;;6.30;99.90;;;4.83;100.00;100380.81;4982868;28;20034;-77
2023/01/11 06:04:01;;;;;;;12.77;2.25;;;6.30;99.90;;;4.78;100.00;100388.78;4967110;28;20026;-77
2023/01/11 06:06:27;;;;;;;17.23;2.40;;;6.30;99.90;;;4.81;100.00;100388.66;4967497;28;20027;-78
2023/01/11 06:08:58;;;;;;;13.52;2.35;;;6.30;99.90;;;4.79;100.00;100387.00;4982639;28;20078;-77
2023/01/11 06:11:23;;;;;;;16.73;2.25;;;6.30;99.90;;;4.81;100.00;100383.47;4996634;28;20085;-77
2023/01/11 06:13:49;;;;;;;8.40;2.00;;;6.40;99.90;;;4.80;100.00;100386.13;4982375;28;20161;-78
2023/01/11 06:16:19;;;;;;;18.20;2.63;;;6.30;99.90;;;4.81;100.00;100375.63;4968917;28;20042;-77
2023/01/11 06:18:51;;;;;;;14.65;2.38;;;6.40;99.90;;;4.82;100.00;100376.50;4964075;28;20031;-78
2023/01/11 06:21:18;;;;;;;13.23;2.30;;;6.40;99.90;;;4.83;100.00;100370.38;4998190;28;20455;-78
2023/01/11 06:23:49;;;;;;;16.83;2.25;;;6.40;99.90;;;4.83;100.00;100378.22;4983023;28;20446;-78
2023/01/11 06:26:18;;;;;;;6.88;1.77;;;6.40;99.90;;;4.81;100.00;100364.34;4999542;28;20022;-78
2023/01/11 06:28:45;;;;;;;11.27;2.10;;;6.40;99.90;;;4.77;100.00;100357.50;4968663;28;20122;-77
2023/01/11 06:31:11;;;;;;;7.82;1.90;;;6.40;99.90;;;4.87;100.00;100357.19;4966428;28;20034;-78
2023/01/11 06:33:37;;;;;;;13.75;2.47;;;6.40;99.90;;;4.87;100.00;100361.56;4984242;28;20033;-78
2023/01/11 06:36:07;;;;;;;9.75;2.08;;;6.40;99.90;;;4.86;100.00;100355.50;4981267;28;20034;-79
2023/01/11 06:38:33;;;;;;;9.07;2.15;;;6.40;99.90;;;4.88;100.00;100358.03;5000069;28;20387;-79
2023/01/11 06:41:02;;;;;;;14.18;2.10;;;6.40;99.90;;;4.88;100.00;100348.50;4965250;28;20037;-78
2023/01/11 06:43:30;;;;;;;13.48;2.40;;;6.40;99.90;;;4.88;100.00;100353.72;4986111;28;20108;-81
2023/01/11 06:45:56;;;;;;;15.60;2.33;;;6.40;99.90;;;4.86;100.00;100354.63;4986221;28;20062;-80
2023/01/11 06:48:25;;;;;;;15.27;2.53;;;6.40;99.90;;;4.93;100.00;100353.56;5002282;28;20036;-80
2023/01/11 06:50:54;;;;;;;19.25;2.67;;;6.40;99.90;;;4.88;100.00;100343.28;5002528;28;20117;-81
2023/01/11 06:53:21;;;;;;;15.20;2.53;;;6.40;99.90;;;4.92;100.00;100364.88;5002148;28;20049;-80
2023/01/11 06:55:52;;;;;;;16.35;2.50;;;6.40;99.90;;;4.85;100.00;100355.53;5002138;28;20030;-80
2023/01/11 06:58:19;;;;;;;13.85;2.05;;;6.40;99.90;;;4.84;100.00;100348.63;4987563;28;20030;-80
2023/01/11 07:00:45;;;;;;;13.18;2.13;;;6.40;99.90;;;4.87;100.00;100353.75;4983688;28;20435;-80
2023/01/11 07:03:14;;;;;;;15.23;2.47;;;6.40;99.90;;;4.92;100.00;100357.06;4971437;28;20025;-80
2023/01/11 07:05:42;;;;;;;11.40;2.05;;;6.40;99.90;;;4.94;100.00;100353.50;4985773;28;20038;-81
2023/01/11 07:08:11;;;;;;;9.38;2.30;;;6.40;99.90;;;4.94;100.00;100357.88;4972752;28;20034;-80
2023/01/11 07:10:37;;;;;;;10.68;2.08;;;6.40;99.90;;;4.92;100.00;100357.06;5003035;28;20034;-80
2023/01/11 07:13:03;;;;;;;15.05;2.13;;;6.50;99.90;;;4.98;100.00;100358.66;4986387;28;20121;-80
2023/01/11 07:15:31;;;;;;;13.35;2.15;;;6.50;99.90;;;4.97;100.00;100363.03;5003072;28;20406;-81
2023/01/11 07:17:58;;;;;;;13.35;2.20;;;6.50;99.90;;;4.98;100.00;100363.88;4986228;28;20057;-80
2023/01/11 07:20:25;;;;;;;11.80;2.30;;;6.50;99.90;;;4.93;100.00;100362.25;5004417;28;20037;-81
2023/01/11 07:22:55;;;;;;;10.82;2.25;;;6.50;99.90;;;4.95;100.00;100364.81;5004159;28;20108;-80
2023/01/11 07:25:20;;;;;;;15.45;2.50;;;6.50;99.90;;;4.95;100.00;100364.81;4988001;28;20018;-81
2023/01/11 07:27:46;;;;;;;10.55;2.30;;;6.50;99.90;;;4.98;100.00;100363.88;4986815;28;20130;-80
2023/01/11 07:30:18;;;;;;;7.65;2.15;;;6.50;99.90;;;4.91;100.00;100366.66;5002225;28;20110;-80
2023/01/11 07:32:43;;;;;;;15.23;2.67;;;6.50;99.90;;;4.83;100.00;100367.78;4985308;28;20033;-80
2023/01/11 07:35:09;;;;;;;11.63;2.45;;;6.40;99.90;;;4.85;100.00;100365.97;4989006;28;20140;-81
2023/01/11 07:37:36;;;;;;;9.18;2.22;;;6.50;99.90;;;4.92;100.00;100377.94;4986665;28;20126;-81
2023/01/11 07:40:03;;;;;;;11.73;2.15;;;6.40;99.90;;;4.94;100.00;100369.16;4985870;28;20030;-81
2023/01/11 07:45:13;;;;;;;13.32;2.50;;;6.50;99.90;;;4.97;100.00;100378.69;5004091;28;20057;-82
2023/01/11 07:47:39;;;;;;;8.85;2.30;;;6.50;99.90;;;4.95;100.00;100367.44;4986792;28;20038;-82
2023/01/11 07:50:05;;;;;;;11.65;2.17;;;6.50;99.90;;;4.87;100.00;100354.59;5000572;28;20141;-82
2023/01/11 07:52:31;;;;;;;8.25;2.25;;;6.50;99.90;;;4.97;100.00;100364.75;5000296;28;20037;-81
2023/01/11 07:55:07;;;;;;;9.50;2.60;;;6.50;99.90;;;5.02;100.00;100375.94;4972810;28;20156;-81
2023/01/11 07:57:33;;;;;;;9.73;2.22;;;6.50;99.90;;;5.02;100.00;100388.97;4986342;28;20411;-80
2023/01/11 07:59:59;;;;;;;18.00;2.60;;;6.50;99.90;;;4.93;100.00;100369.22;4987422;28;20038;-82
2023/01/11 08:02:25;;;;;;;12.25;2.33;;;6.50;99.90;;;5.00;100.00;100386.41;4986261;28;20122;-82
2023/01/11 08:04:51;;;;;;;11.23;2.65;;;6.50;99.90;;;5.01;100.00;100368.97;5003362;28;20025;-82
2023/01/11 08:07:19;;;;;;;15.73;3.08;;;6.60;99.90;;;5.03;100.00;100382.84;4986768;28;20544;-82
2023/01/11 08:09:47;;;;;;;15.77;2.47;;;6.60;99.90;;;5.07;100.00;100364.44;5004048;28;20034;-82
2023/01/11 08:14:57;;;;;;;15.32;2.90;;;6.60;99.90;;;5.05;100.00;100373.22;4990693;28;20702;-83
2023/01/11 08:17:23;;;;;;;6.28;2.30;;;6.60;99.90;;;4.98;100.00;100369.94;5001808;28;20113;-82
2023/01/11 08:19:54;;;;;;;14.90;3.30;;;6.60;99.90;;;5.04;100.00;100374.97;4969546;28;20407;-82
2023/01/11 08:22:20;;;;;;;13.18;2.80;;;6.60;99.90;;;5.00;100.00;100377.72;5001553;28;20038;-80
2023/01/11 08:24:46;;;;;;;14.35;3.10;;;6.00;99.90;;;5.03;100.00;100372.41;4969765;28;20030;-83
2023/01/11 08:27:12;;;;;;;11.05;2.80;;;6.60;99.90;;;5.05;100.00;100381.03;4987326;28;20096;-83
2023/01/11 08:29:39;;;;;;;10.07;2.67;;;6.60;99.90;;;5.07;100.00;100380.09;4968270;28;20022;-83
2023/01/11 08:32:10;;;;;;;14.52;2.95;;;6.60;99.90;;;5.07;100.00;100372.25;4971145;28;20026;-84
2023/01/11 08:34:36;;;;;;;15.43;3.22;;;6.60;99.90;;;5.06;100.00;100373.19;5003343;28;20089;-83
2023/01/11 08:37:02;;;;;;;20.27;3.15;;;6.60;99.90;;;5.10;100.00;100380.03;4988693;28;20160;-82
2023/01/11 08:39:29;;;;;;;20.33;3.28;;;6.60;99.90;;;5.05;100.00;100378.44;4971603;28;20042;-83
2023/01/11 08:42:01;;;;;;;16.65;3.35;;;6.60;99.90;;;5.04;100.00;100377.59;4970669;28;20081;-83
2023/01/11 08:44:27;;;;;;;16.30;3.45;;;6.60;99.90;;;5.06;100.00;100375.78;4967496;28;20095;-84
2023/01/11 08:46:53;;;;;;;19.35;3.75;;;6.60;99.90;;;5.07;100.00;100380.09;5004505;28;20061;-82
2023/01/11 08:49:19;;;;;;;20.73;3.70;;;6.60;99.90;;;5.14;100.00;100386.88;4972205;28;20503;-84
2023/01/11 08:51:44;;;;;;;19.77;3.83;;;6.70;99.90;;;5.20;100.00;100384.97;4987518;28;20117;-83
2023/01/11 08:54:13;;;;;;;9.65;2.80;;;6.70;99.90;;;5.17;100.00;100388.53;4986679;28;20121;-83
2023/01/11 08:56:42;;;;;;;10.38;2.67;;;;;;;5.18;100.00;100386.75;4984879;28;20026;-83
2023/01/11 08:59:09;;;;;;;19.52;3.05;;;6.70;99.90;;;5.21;100.00;100382.31;5005208;28;20021;-83
2023/01/11 09:01:36;;;;;;;12.95;3.10;;;6.70;99.90;;;5.27;100.00;100383.88;4969345;28;20034;-84
2023/01/11 09:04:02;;;;;;;12.52;2.78;;;6.80;99.90;;;5.30;100.00;100386.41;5000080;28;20050;-82
2023/01/11 09:06:33;;;;;;;10.70;2.33;;;6.80;99.90;;;5.34;100.00;100388.03;4969051;28;20035;-83
2023/01/11 09:08:59;;;;;;;13.25;2.97;;;6.80;99.90;;;5.35;100.00;100381.88;4985419;28;20030;-83
2023/01/11 09:14:21;;;;;;;12.40;2.22;;;6.90;99.90;;;5.40;100.00;100384.34;4991342;28;20045;-84
2023/01/11 09:16:53;;;;;;;8.48;2.30;;;6.90;99.90;;;5.43;100.00;100387.72;5000626;28;20038;-83
2023/01/11 09:19:22;;;;;;;12.98;2.17;;;6.90;99.90;;;5.47;100.00;100389.34;4969565;28;20530;-85
2023/01/11 09:21:48;;;;;;;9.38;1.80;;;6.90;99.90;;;5.52;100.00;100389.19;5000280;28;20034;-83
2023/01/11 09:24:16;;;;;;;9.50;2.40;;;7.00;99.90;;;5.56;100.00;100385.59;4999368;28;20044;-83
2023/01/11 09:26:42;;;;;;;4.72;1.70;;;7.00;99.90;;;5.58;100.00;100382.94;4985497;28;20037;-83
2023/01/11 09:29:19;;;;;;;8.05;2.00;;;7.00;99.90;;;5.59;100.00;100384.63;5002825;28;20034;-84
2023/01/11 09:31:45;;;;;;;10.15;1.85;;;7.00;99.90;;;5.59;100.00;100388.09;4967926;28;20038;-83
2023/01/11 09:34:26;;;;;;;6.03;1.73;;;7.10;99.90;;;5.55;100.00;100386.50;4967157;28;20060;-83
2023/01/11 09:36:53;;;;;;;4.35;1.98;;;7.10;99.90;;;5.56;100.00;100377.75;4970466;28;20392;-83
2023/01/11 09:39:23;;;;;;;2.60;1.30;;;7.10;99.90;;;5.57;100.00;100374.22;4970630;28;20081;-82
2023/01/11 09:42:31;;;;;;;8.43;1.58;;;7.10;99.90;;;5.58;100.00;100369.88;4969173;28;20129;-83
2023/01/11 09:45:12;;;;;;;5.05;1.30;;;7.10;99.90;;;5.55;100.00;100369.06;4969241;28;20606;-83
2023/01/11 09:48:02;;;;;;;3.40;1.50;;;7.10;99.90;;;5.55;100.00;100374.31;5002690;28;20068;-83
2023/01/11 09:50:39;;;;;;;4.88;2.00;;;7.10;99.90;;;5.66;100.00;100373.09;4999757;28;20023;-83
2023/01/11 09:53:17;;;;;;;4.60;1.40;;;7.10;99.90;;;5.67;100.00;100365.22;4981885;28;20052;-83
2023/01/11 09:55:53;;;;;;;4.65;1.33;;;7.20;99.90;;;5.69;100.00;100359.94;4984677;28;20033;-83
2023/01/11 09:58:45;;;;;;;4.30;1.30;;;7.20;99.90;;;5.68;100.00;100356.47;4983542;28;20031;-83
2023/01/11 10:01:48;;;;;;;3.70;1.52;;;7.20;99.90;;;5.68;100.00;100351.25;4985370;28;20069;-83
2023/01/11 10:04:36;;;;;;;5.97;1.48;;;7.20;99.90;;;5.76;100.00;100349.22;4999873;28;20679;-83
2023/01/11 10:07:53;;;;;;;4.32;1.42;;;7.20;99.90;;;5.75;100.00;100347.53;4982751;28;20053;-83
2023/01/11 10:10:52;;;;;;;3.35;1.05;;;7.20;99.90;;;5.81;100.00;100343.88;4972489;28;20034;-84
2023/01/11 10:13:46;;;;;;;4.57;1.83;;;7.30;99.90;;;5.80;100.00;100354.38;4984238;28;20057;-83
2023/01/11 10:16:34;;;;;;;4.45;1.38;;;7.30;99.90;;;5.76;100.00;100351.84;5000696;28;20033;-82
2023/01/11 10:19:37;;;;;;;4.22;1.40;;;7.30;99.90;;;5.75;100.00;100349.31;5003262;28;20703;-83
2023/01/11 10:22:16;;;;;;;4.40;1.10;;;7.30;99.90;;;5.74;100.00;100350.19;4968320;28;20129;-82
2023/01/11 10:25:04;;;;;;;7.35;1.83;;;7.30;99.90;;;5.78;100.00;100346.56;4966544;28;20026;-83
2023/01/11 10:27:52;;;;;;;4.57;1.55;;;7.30;99.90;;;5.78;100.00;100350.94;4969541;28;20044;-81
2023/01/11 10:30:36;;;;;;;6.13;1.30;;;7.30;99.90;;;5.76;100.00;100348.38;4990447;28;20054;-83
2023/01/11 10:33:33;;;;;;;2.63;1.08;;;7.30;99.90;;;5.80;100.00;100349.16;4979460;28;20094;-83
2023/01/11 10:43:02;;;;;;;5.45;1.50;;;7.40;99.90;;;5.83;100.00;100344.69;4988200;28;20060;-81
2023/01/11 10:46:09;;;;;;;6.20;1.73;;;7.40;99.90;;;5.89;100.00;100349.69;4984594;28;20061;-83
2023/01/11 10:48:44;;;;;;;;;;;7.40;99.90;;;5.81;100.00;100330.81;4969958;28;20030;-83
2023/01/11 10:51:45;;;;;;;7.90;1.88;;;7.40;99.90;;;5.87;100.00;100334.97;4999316;28;19917;-81
2023/01/11 10:54:35;;;;;;;5.97;1.65;;;7.40;99.90;;;5.89;100.00;100339.22;4984063;28;20100;-82
2023/01/11 10:57:07;;;;;;;6.82;1.67;;;7.40;99.90;;;5.94;100.00;100332.13;4999181;28;20050;-83
2023/01/11 11:00:26;;;;;;;5.03;1.80;;;7.40;99.90;;;5.95;100.00;100346.06;5000144;28;20031;-83
2023/01/11 11:03:26;;;;;;;6.88;1.90;;;7.50;99.90;;;6.00;100.00;100332.81;4957149;28;20554;-82
2023/01/11 11:06:11;;;;;;;2.88;1.80;;;7.50;99.90;;;6.03;100.00;100322.28;4980795;28;20046;-82
2023/01/11 11:08:53;;;;;;;4.97;2.15;;;7.50;99.90;;;6.02;100.00;100328.41;4999236;28;20076;-83
2023/01/11 11:11:56;;;;;;;7.53;1.98;;;7.50;99.90;;;6.02;100.00;100323.16;4964888;28;20457;-82
2023/01/11 11:14:51;;;;;;;9.90;2.30;;;7.50;99.90;;;6.05;100.00;100329.16;4981964;28;20072;-82
2023/01/11 11:17:24;;;;;;;3.67;2.10;;;7.50;99.90;;;6.04;100.00;100331.81;4979980;28;20033;-83
2023/01/11 11:19:52;;;;;;;7.50;2.42;;;7.50;99.90;;;6.05;100.00;100330.94;4966578;28;20037;-82